createdAt,value
2018-05-23T00:01:02.703Z,16.70
2018-05-23T00:03:30.206Z,16.66
2018-05-23T00:05:57.673Z,16.60
2018-05-23T00:08:25.163Z,16.57
2018-05-23T00:10:52.630Z,16.59
2018-05-23T00:13:20.171Z,16.61
2018-05-23T00:15:47.730Z,16.57
2018-05-23T00:18:15.210Z,16.50
2018-05-23T00:20:42.670Z,16.37
2018-05-23T00:23:10.154Z,16.30
2018-05-23T00:25:37.661Z,16.19
2018-05-23T00:28:05.328Z,16.06
2018-05-23T00:30:32.799Z,16.00
2018-05-23T00:33:00.346Z,15.92
2018-05-23T00:35:27.839Z,15.93
2018-05-23T00:37:55.342Z,15.89
2018-05-23T00:40:22.828Z,15.92
2018-05-23T00:42:50.378Z,15.96
2018-05-23T00:45:17.880Z,15.93
2018-05-23T00:47:45.390Z,15.83
2018-05-23T00:50:12.945Z,15.76
2018-05-23T00:52:40.418Z,15.70
2018-05-23T00:55:19.850Z,15.61
2018-05-23T00:57:47.315Z,15.55
2018-05-23T01:00:14.803Z,15.52
2018-05-23T01:02:42.270Z,15.66
2018-05-23T01:05:09.755Z,15.80
2018-05-23T01:07:37.242Z,15.86
2018-05-23T01:10:04.727Z,15.96
2018-05-23T01:12:32.254Z,15.97
2018-05-23T01:14:59.831Z,15.91
2018-05-23T01:17:27.378Z,15.81
2018-05-23T01:19:55.042Z,15.75
2018-05-23T01:22:22.502Z,15.72
2018-05-23T01:24:50.040Z,15.65
2018-05-23T01:27:17.523Z,15.59
2018-05-23T01:29:45.002Z,15.55
2018-05-23T01:32:12.534Z,15.68
2018-05-23T01:34:40.050Z,15.68
2018-05-23T01:37:07.543Z,15.58
2018-05-23T01:39:35.059Z,15.54
2018-05-23T01:42:02.555Z,15.48
2018-05-23T01:44:30.053Z,15.40
2018-05-23T01:46:57.597Z,15.32
2018-05-23T01:49:27.026Z,15.26
2018-05-23T01:51:54.487Z,15.20
2018-05-23T01:54:21.979Z,15.10
2018-05-23T01:56:49.439Z,15.08
2018-05-23T01:59:16.923Z,15.08
2018-05-23T02:01:44.436Z,15.06
2018-05-23T02:04:12.080Z,14.99
2018-05-23T02:06:39.608Z,14.92
2018-05-23T02:09:07.082Z,14.86
2018-05-23T02:11:34.570Z,14.78
2018-05-23T02:14:03.492Z,14.78
2018-05-23T02:16:30.985Z,14.86
2018-05-23T02:18:58.475Z,14.84
2018-05-23T02:21:25.984Z,14.74
2018-05-23T02:23:53.442Z,14.66
2018-05-23T02:26:20.994Z,14.63
2018-05-23T02:28:48.496Z,14.61
2018-05-23T02:31:16.016Z,14.52
2018-05-23T02:33:43.474Z,14.48
2018-05-23T02:36:10.964Z,14.44
2018-05-23T02:38:38.534Z,14.40
2018-05-23T02:41:06.151Z,14.44
2018-05-23T02:43:33.614Z,14.49
2018-05-23T02:46:01.147Z,14.53
2018-05-23T02:48:28.634Z,14.55
2018-05-23T02:50:56.123Z,14.52
2018-05-23T02:53:23.659Z,14.51
2018-05-23T02:55:51.231Z,14.45
2018-05-23T02:58:18.768Z,14.50
2018-05-23T03:00:46.255Z,14.45
2018-05-23T03:03:13.778Z,14.34
2018-05-23T03:05:41.239Z,14.29
2018-05-23T03:08:08.726Z,14.19
2018-05-23T03:10:36.203Z,14.10
2018-05-23T03:13:03.702Z,14.04
2018-05-23T03:15:31.177Z,13.97
2018-05-23T03:17:58.743Z,13.92
2018-05-23T03:20:26.286Z,13.93
2018-05-23T03:22:53.778Z,13.96
2018-05-23T03:25:21.243Z,13.92
2018-05-23T03:27:48.727Z,13.90
2018-05-23T03:30:16.219Z,13.87
2018-05-23T03:32:43.706Z,13.86
2018-05-23T03:35:11.248Z,13.81
2018-05-23T03:37:38.771Z,13.75
2018-05-23T03:40:06.235Z,13.70
2018-05-23T03:42:33.732Z,13.72
2018-05-23T03:45:01.285Z,13.73
2018-05-23T03:47:28.772Z,13.72
2018-05-23T03:49:56.295Z,13.73
2018-05-23T03:52:23.868Z,13.77
2018-05-23T03:54:51.337Z,13.76
2018-05-23T03:57:18.831Z,13.74
2018-05-23T03:59:58.206Z,13.73
2018-05-23T04:02:37.451Z,13.74
2018-05-23T04:05:16.870Z,13.77
2018-05-23T04:07:44.351Z,13.86
2018-05-23T04:10:11.814Z,13.99
2018-05-23T04:12:39.318Z,14.05
2018-05-23T04:15:06.807Z,14.15
2018-05-23T04:17:34.285Z,14.33
2018-05-23T04:20:01.831Z,14.52
2018-05-23T04:22:29.314Z,14.66
2018-05-23T04:24:56.902Z,14.79
2018-05-23T04:27:24.379Z,14.90
2018-05-23T04:29:51.871Z,15.07
2018-05-23T04:32:19.354Z,15.18
2018-05-23T04:34:46.818Z,15.25
2018-05-23T04:37:14.307Z,15.34
2018-05-23T04:39:41.775Z,15.47
2018-05-23T04:42:09.259Z,15.55
2018-05-23T04:44:36.751Z,15.63
2018-05-23T04:47:04.221Z,15.74
2018-05-23T04:49:31.747Z,15.87
2018-05-23T04:51:59.210Z,16.02
2018-05-23T04:54:26.699Z,16.12
2018-05-23T04:56:55.095Z,16.26
2018-05-23T04:59:22.580Z,16.39
2018-05-23T05:01:50.055Z,16.51
2018-05-23T05:04:17.603Z,16.60
2018-05-23T05:06:45.143Z,16.63
2018-05-23T05:09:12.631Z,16.72
2018-05-23T05:11:40.102Z,16.78
2018-05-23T05:14:07.603Z,16.94
2018-05-23T05:16:35.072Z,16.98
2018-05-23T05:19:02.587Z,17.13
2018-05-23T05:21:30.046Z,17.26
2018-05-23T05:23:57.534Z,17.39
2018-05-23T05:26:25.096Z,17.49
2018-05-23T05:28:52.691Z,17.59
2018-05-23T05:31:20.146Z,17.69
2018-05-23T05:33:47.640Z,17.67
2018-05-23T05:36:15.104Z,17.74
2018-05-23T05:38:42.673Z,17.80
2018-05-23T05:41:10.183Z,17.91
2018-05-23T05:43:37.683Z,17.99
2018-05-23T05:46:05.218Z,18.16
2018-05-23T05:48:32.754Z,18.28
2018-05-23T05:51:00.315Z,18.42
2018-05-23T05:53:27.882Z,18.49
2018-05-23T05:55:55.366Z,18.61
2018-05-23T05:58:22.830Z,18.82
2018-05-23T06:00:50.311Z,18.93
2018-05-23T06:03:17.779Z,19.02
2018-05-23T06:05:45.263Z,19.13
2018-05-23T06:08:12.731Z,19.09
2018-05-23T06:10:40.282Z,19.29
2018-05-23T06:13:07.847Z,19.34
2018-05-23T06:15:35.326Z,19.31
2018-05-23T06:18:02.782Z,19.52
2018-05-23T06:20:30.272Z,19.66
2018-05-23T06:22:57.755Z,19.59
2018-05-23T06:25:25.263Z,19.74
2018-05-23T06:27:52.795Z,19.96
2018-05-23T06:30:20.334Z,20.07
2018-05-23T06:32:47.782Z,20.11
2018-05-23T06:35:15.327Z,20.31
2018-05-23T06:37:42.834Z,20.30
2018-05-23T06:40:10.331Z,20.34
2018-05-23T06:42:37.828Z,20.45
2018-05-23T06:45:05.344Z,20.68
2018-05-23T06:47:32.858Z,20.59
2018-05-23T06:50:00.358Z,20.59
2018-05-23T06:52:27.846Z,20.69
2018-05-23T06:54:55.337Z,20.67
2018-05-23T06:57:22.821Z,20.77
2018-05-23T06:59:50.319Z,20.81
2018-05-23T07:02:17.806Z,20.87
2018-05-23T07:04:45.267Z,20.88
2018-05-23T07:07:12.839Z,20.55
2018-05-23T07:09:40.325Z,20.30
2018-05-23T07:12:07.816Z,20.26
2018-05-23T07:14:36.321Z,20.34
2018-05-23T07:17:03.806Z,20.57
2018-05-23T07:19:31.274Z,20.66
2018-05-23T07:21:58.823Z,20.31
2018-05-23T07:24:26.287Z,20.37
2018-05-23T07:26:53.774Z,20.37
2018-05-23T07:29:21.259Z,20.34
2018-05-23T07:31:48.788Z,20.53
2018-05-23T07:34:16.300Z,20.55
2018-05-23T07:36:43.806Z,20.71
2018-05-23T07:39:11.293Z,20.75
2018-05-23T07:41:38.810Z,20.96
2018-05-23T07:44:06.292Z,21.19
2018-05-23T07:46:33.779Z,21.37
2018-05-23T07:49:01.327Z,21.56
2018-05-23T07:51:28.902Z,21.79
2018-05-23T07:53:56.441Z,21.82
2018-05-23T07:56:23.955Z,21.86
2018-05-23T07:58:51.446Z,21.89
2018-05-23T08:01:18.919Z,21.98
2018-05-23T08:03:46.431Z,22.11
2018-05-23T08:06:13.908Z,22.26
2018-05-23T08:08:41.444Z,22.35
2018-05-23T08:11:08.911Z,22.61
2018-05-23T08:13:36.423Z,22.91
2018-05-23T08:16:03.995Z,23.07
2018-05-23T08:18:31.555Z,22.72
2018-05-23T08:20:59.042Z,23.04
2018-05-23T08:23:26.610Z,23.08
2018-05-23T08:25:54.090Z,22.99
2018-05-23T08:28:21.574Z,23.02
2018-05-23T08:30:49.037Z,23.24
2018-05-23T08:33:16.603Z,23.33
2018-05-23T08:35:44.099Z,23.38
2018-05-23T08:38:11.622Z,23.33
2018-05-23T08:40:39.117Z,23.40
2018-05-23T08:43:06.743Z,23.46
2018-05-23T08:45:34.230Z,23.28
2018-05-23T08:48:01.723Z,23.16
2018-05-23T08:50:29.215Z,23.40
2018-05-23T08:52:56.698Z,23.62
2018-05-23T08:55:24.175Z,23.78
2018-05-23T08:57:51.695Z,23.72
2018-05-23T09:00:19.188Z,23.72
2018-05-23T09:02:46.711Z,23.26
2018-05-23T09:05:14.187Z,23.23
2018-05-23T09:07:41.683Z,23.28
2018-05-23T09:10:09.186Z,23.56
2018-05-23T09:12:36.808Z,23.67
2018-05-23T09:15:04.164Z,23.95
2018-05-23T09:17:31.667Z,24.30
2018-05-23T09:19:59.159Z,24.45
2018-05-23T09:22:26.638Z,24.79
2018-05-23T09:24:54.135Z,24.60
2018-05-23T09:27:22.595Z,24.39
2018-05-23T09:29:50.169Z,24.81
2018-05-23T09:32:17.689Z,25.35
2018-05-23T09:34:45.222Z,25.47
2018-05-23T09:37:12.685Z,25.58
2018-05-23T09:39:40.234Z,25.89
2018-05-23T09:42:07.704Z,25.75
2018-05-23T09:44:35.209Z,26.20
2018-05-23T09:47:02.693Z,26.49
2018-05-23T09:49:30.184Z,26.51
2018-05-23T09:51:57.673Z,26.85
2018-05-23T09:54:25.198Z,26.71
2018-05-23T09:56:52.694Z,26.15
2018-05-23T09:59:20.236Z,26.61
2018-05-23T10:01:47.754Z,26.79
2018-05-23T10:04:15.268Z,26.67
2018-05-23T10:06:42.906Z,27.08
2018-05-23T10:09:10.427Z,26.91
2018-05-23T10:11:38.012Z,27.57
2018-05-23T10:14:05.566Z,27.85
2018-05-23T10:16:33.040Z,28.74
2018-05-23T10:19:00.546Z,28.15
2018-05-23T10:21:28.023Z,27.81
2018-05-23T10:23:55.525Z,28.30
2018-05-23T10:26:23.010Z,27.78
2018-05-23T10:28:50.493Z,27.45
2018-05-23T10:31:17.979Z,27.70
2018-05-23T10:33:45.456Z,27.89
2018-05-23T10:36:12.958Z,28.13
2018-05-23T10:38:40.508Z,28.20
2018-05-23T10:41:07.966Z,29.10
2018-05-23T10:43:35.429Z,29.64
2018-05-23T10:46:02.914Z,29.95
2018-05-23T10:48:30.459Z,30.59
2018-05-23T10:50:57.954Z,30.76
2018-05-23T10:53:29.400Z,29.36
2018-05-23T10:55:56.939Z,28.87
2018-05-23T10:58:24.691Z,28.31
2018-05-23T11:00:52.215Z,27.99
2018-05-23T11:03:19.734Z,28.90
2018-05-23T11:05:47.340Z,30.30
2018-05-23T11:08:17.251Z,31.12
2018-05-23T11:10:44.873Z,31.85
2018-05-23T11:13:15.179Z,32.06
2018-05-23T11:15:42.693Z,32.43
2018-05-23T11:18:10.186Z,32.54
2018-05-23T11:20:37.857Z,32.55
2018-05-23T11:23:05.463Z,32.84
2018-05-23T11:25:32.983Z,33.34
2018-05-23T11:28:00.450Z,32.74
2018-05-23T11:30:27.975Z,30.58
2018-05-23T11:32:55.480Z,30.61
2018-05-23T11:35:22.983Z,30.13
2018-05-23T11:37:50.503Z,31.01
2018-05-23T11:40:17.986Z,32.76
2018-05-23T11:42:45.482Z,34.16
2018-05-23T11:45:12.955Z,35.34
2018-05-23T11:47:40.501Z,34.89
2018-05-23T11:50:08.008Z,34.36
2018-05-23T11:52:35.626Z,32.09
2018-05-23T11:55:03.171Z,32.99
2018-05-23T11:57:30.730Z,33.43
2018-05-23T11:59:59.275Z,33.38
2018-05-23T12:02:26.768Z,34.66
2018-05-23T12:04:54.238Z,33.15
2018-05-23T12:07:21.873Z,34.54
2018-05-23T12:09:49.456Z,32.83
2018-05-23T12:12:16.955Z,31.86
2018-05-23T12:14:44.663Z,30.88
2018-05-23T12:17:12.206Z,29.77
2018-05-23T12:19:39.867Z,29.40
2018-05-23T12:22:07.355Z,28.41
2018-05-23T12:24:34.866Z,28.07
2018-05-23T12:27:03.410Z,27.58
2018-05-23T12:29:30.878Z,27.47
2018-05-23T12:31:58.385Z,27.26
2018-05-23T12:34:25.855Z,27.14
2018-05-23T12:36:53.351Z,26.80
2018-05-23T12:39:21.038Z,26.73
2018-05-23T12:41:48.690Z,26.83
2018-05-23T12:44:16.170Z,26.73
2018-05-23T12:46:43.742Z,26.63
2018-05-23T12:49:11.386Z,26.44
2018-05-23T12:51:38.946Z,26.11
2018-05-23T12:54:06.599Z,25.78
2018-05-23T12:56:34.091Z,25.49
2018-05-23T12:59:01.717Z,25.59
2018-05-23T13:01:29.211Z,25.74
2018-05-23T13:03:56.715Z,26.19
2018-05-23T13:06:24.239Z,26.11
2018-05-23T13:08:51.812Z,25.89
2018-05-23T13:11:19.343Z,26.52
2018-05-23T13:13:49.487Z,26.64
2018-05-23T13:16:17.331Z,26.58
2018-05-23T13:18:47.523Z,26.48
2018-05-23T13:21:17.354Z,26.48
2018-05-23T13:23:44.987Z,26.47
2018-05-23T13:26:12.476Z,26.48
2018-05-23T13:28:40.195Z,26.92
2018-05-23T13:31:07.769Z,27.67
2018-05-23T13:33:35.282Z,27.73
2018-05-23T13:36:02.751Z,28.24
2018-05-23T13:38:30.240Z,28.26
2018-05-23T13:40:57.703Z,28.12
2018-05-23T13:43:25.203Z,28.00
2018-05-23T13:45:52.667Z,28.60
2018-05-23T13:48:20.251Z,28.89
2018-05-23T13:50:47.807Z,28.76
2018-05-23T13:53:15.314Z,29.07
2018-05-23T13:55:43.058Z,28.97
2018-05-23T13:58:10.566Z,27.93
2018-05-23T14:00:38.027Z,28.42
2018-05-23T14:03:05.530Z,28.45
2018-05-23T14:05:33.058Z,28.91
2018-05-23T14:08:00.522Z,28.99
2018-05-23T14:10:28.220Z,29.27
2018-05-23T14:12:55.849Z,29.29
2018-05-23T14:15:23.431Z,29.66
2018-05-23T14:17:50.895Z,29.11
2018-05-23T14:20:18.436Z,29.01
2018-05-23T14:22:45.991Z,33.32
2018-05-23T14:25:13.474Z,36.30
2018-05-23T14:27:41.000Z,35.40
2018-05-23T14:30:08.486Z,33.53
2018-05-23T14:32:35.987Z,31.84
2018-05-23T14:35:03.496Z,30.78
2018-05-23T14:37:30.957Z,29.66
2018-05-23T14:39:58.447Z,29.12
2018-05-23T14:42:26.678Z,28.47
2018-05-23T14:44:54.227Z,28.04
2018-05-23T14:47:21.706Z,27.40
2018-05-23T14:49:49.259Z,27.53
2018-05-23T14:52:16.741Z,27.41
2018-05-23T14:54:44.302Z,27.31
2018-05-23T14:57:11.766Z,27.20
2018-05-23T14:59:39.323Z,27.14
2018-05-23T15:02:06.875Z,28.21
2018-05-23T15:04:34.375Z,29.60
2018-05-23T15:07:02.267Z,31.40
2018-05-23T15:09:29.877Z,31.09
2018-05-23T15:11:57.382Z,30.17
2018-05-23T15:14:25.002Z,29.27
2018-05-23T15:16:52.411Z,29.06
2018-05-23T15:19:19.908Z,27.22
2018-05-23T15:21:47.383Z,26.09
2018-05-23T15:24:14.870Z,25.97
2018-05-23T15:26:42.343Z,26.02
2018-05-23T15:29:09.814Z,25.82
2018-05-23T15:31:37.362Z,26.24
2018-05-23T15:34:04.827Z,25.98
2018-05-23T15:36:32.335Z,25.01
2018-05-23T15:39:00.722Z,24.87
2018-05-23T15:41:28.226Z,24.69
2018-05-23T15:43:55.690Z,24.69
2018-05-23T15:46:23.223Z,24.41
2018-05-23T15:48:50.687Z,24.35
2018-05-23T15:51:18.447Z,24.28
2018-05-23T15:53:45.903Z,24.10
2018-05-23T15:56:13.647Z,23.99
2018-05-23T15:58:41.130Z,24.04
2018-05-23T16:01:09.103Z,23.93
2018-05-23T16:03:36.575Z,23.74
2018-05-23T16:06:04.063Z,23.94
2018-05-23T16:08:31.563Z,23.87
2018-05-23T16:10:59.139Z,23.93
2018-05-23T16:13:26.690Z,23.79
2018-05-23T16:15:54.195Z,23.82
2018-05-23T16:18:21.681Z,23.62
2018-05-23T16:20:49.200Z,23.57
2018-05-23T16:23:16.724Z,23.55
2018-05-23T16:25:44.219Z,23.19
2018-05-23T16:28:11.707Z,23.16
2018-05-23T16:30:39.211Z,23.31
2018-05-23T16:33:06.759Z,23.13
2018-05-23T16:35:34.265Z,23.00
2018-05-23T16:38:01.791Z,23.02
2018-05-23T16:40:29.343Z,23.04
2018-05-23T16:42:56.893Z,23.28
2018-05-23T16:45:24.457Z,23.43
2018-05-23T16:47:56.653Z,23.43
2018-05-23T16:50:24.379Z,23.60
2018-05-23T16:52:51.984Z,23.47
2018-05-23T16:55:19.461Z,23.62
2018-05-23T16:57:46.998Z,24.32
2018-05-23T17:00:14.470Z,24.81
2018-05-23T17:02:41.954Z,24.99
2018-05-23T17:05:09.421Z,25.36
2018-05-23T17:07:36.917Z,26.26
2018-05-23T17:10:04.433Z,27.00
2018-05-23T17:12:32.016Z,27.29
2018-05-23T17:14:59.395Z,26.99
2018-05-23T17:17:27.240Z,27.48
2018-05-23T17:19:54.671Z,27.54
2018-05-23T17:22:22.154Z,27.76
2018-05-23T17:24:49.697Z,27.79
2018-05-23T17:27:17.298Z,27.53
2018-05-23T17:29:44.726Z,27.19
2018-05-23T17:32:12.213Z,27.06
2018-05-23T17:34:39.756Z,26.46
2018-05-23T17:37:07.525Z,26.10
2018-05-23T17:39:35.041Z,25.81
2018-05-23T17:42:02.535Z,25.59
2018-05-23T17:44:30.003Z,25.07
2018-05-23T17:46:57.495Z,24.55
2018-05-23T17:49:25.000Z,24.57
2018-05-23T17:51:52.491Z,24.48
2018-05-23T17:54:19.954Z,23.71
2018-05-23T17:56:47.490Z,23.29
2018-05-23T17:59:14.958Z,22.96
2018-05-23T18:01:42.422Z,22.49
2018-05-23T18:04:09.906Z,22.28
2018-05-23T18:06:37.383Z,22.24
2018-05-23T18:09:05.666Z,22.02
2018-05-23T18:11:33.121Z,21.92
2018-05-23T18:14:00.618Z,21.59
2018-05-23T18:16:28.089Z,21.62
2018-05-23T18:18:55.577Z,21.57
2018-05-23T18:21:23.054Z,21.55
2018-05-23T18:23:50.576Z,21.45
2018-05-23T18:26:18.137Z,21.34
2018-05-23T18:28:45.654Z,21.26
2018-05-23T18:31:13.129Z,21.14
2018-05-23T18:33:40.626Z,20.95
2018-05-23T18:36:08.097Z,20.87
2018-05-23T18:38:35.587Z,20.83
2018-05-23T18:41:03.049Z,20.73
2018-05-23T18:43:30.615Z,20.66
2018-05-23T18:45:58.034Z,20.60
2018-05-23T18:48:25.523Z,20.45
2018-05-23T18:50:56.822Z,20.33
2018-05-23T18:53:24.329Z,20.23
2018-05-23T18:55:51.789Z,20.12
2018-05-23T18:58:19.274Z,19.98
2018-05-23T19:00:46.739Z,19.86
2018-05-23T19:03:14.226Z,19.74
2018-05-23T19:05:41.758Z,19.56
2018-05-23T19:08:09.270Z,19.43
2018-05-23T19:10:36.738Z,19.30
2018-05-23T19:13:04.246Z,19.21
2018-05-23T19:15:31.754Z,19.13
2018-05-23T19:17:59.224Z,19.09
2018-05-23T19:20:30.394Z,18.98
2018-05-23T19:22:57.877Z,18.93
2018-05-23T19:25:25.378Z,18.84
2018-05-23T19:27:52.854Z,18.76
2018-05-23T19:30:20.509Z,18.71
2018-05-23T19:32:47.982Z,18.65
2018-05-23T19:35:15.484Z,18.59
2018-05-23T19:37:42.988Z,18.53
2018-05-23T19:40:10.508Z,18.48
2018-05-23T19:42:38.000Z,18.38
2018-05-23T19:45:05.497Z,18.39
2018-05-23T19:47:32.978Z,18.41
2018-05-23T19:50:00.478Z,18.33
2018-05-23T19:52:27.958Z,18.24
2018-05-23T19:54:55.462Z,18.16
2018-05-23T19:57:22.930Z,18.21
2018-05-23T19:59:50.501Z,18.16
2018-05-23T20:02:17.972Z,18.13
2018-05-23T20:04:45.498Z,18.09
2018-05-23T20:07:12.989Z,18.07
2018-05-23T20:09:40.480Z,18.03
2018-05-23T20:12:07.963Z,17.92
2018-05-23T20:14:35.458Z,17.90
2018-05-23T20:17:02.939Z,17.90
2018-05-23T20:19:30.454Z,17.87
2018-05-23T20:21:57.952Z,17.90
2018-05-23T20:24:25.552Z,17.95
2018-05-23T20:26:53.018Z,18.03
2018-05-23T20:29:20.613Z,18.12
2018-05-23T20:31:48.038Z,18.16
2018-05-23T20:34:15.517Z,18.15
2018-05-23T20:36:43.012Z,18.16
2018-05-23T20:39:12.760Z,18.13
2018-05-23T20:41:40.370Z,18.17
2018-05-23T20:44:07.942Z,18.21
2018-05-23T20:46:35.487Z,18.23
2018-05-23T20:49:02.983Z,18.18
2018-05-23T20:51:30.494Z,18.10
2018-05-23T20:53:57.979Z,18.02
2018-05-23T20:56:25.482Z,17.98
2018-05-23T20:58:53.023Z,17.98
2018-05-23T21:01:20.523Z,17.94
2018-05-23T21:03:48.059Z,17.93
2018-05-23T21:06:15.583Z,17.89
2018-05-23T21:08:43.161Z,17.89
2018-05-23T21:11:10.654Z,17.89
2018-05-23T21:13:38.212Z,17.91
2018-05-23T21:16:05.707Z,17.91
2018-05-23T21:18:33.191Z,17.90
2018-05-23T21:21:00.690Z,17.88
2018-05-23T21:23:28.162Z,17.87
2018-05-23T21:25:55.694Z,17.82
2018-05-23T21:28:23.175Z,17.79
2018-05-23T21:30:50.698Z,17.77
2018-05-23T21:33:18.162Z,17.76
2018-05-23T21:35:45.683Z,17.76
2018-05-23T21:38:13.206Z,17.80
2018-05-23T21:40:40.794Z,17.77
2018-05-23T21:43:08.265Z,17.76
2018-05-23T21:45:35.766Z,17.71
2018-05-23T21:48:03.303Z,17.72
2018-05-23T21:50:30.770Z,17.69
2018-05-23T21:52:58.282Z,17.68
2018-05-23T21:55:25.839Z,17.69
2018-05-23T21:57:53.355Z,17.68
2018-05-23T22:00:20.847Z,17.70
2018-05-23T22:02:48.340Z,17.70
2018-05-23T22:05:15.810Z,17.69
2018-05-23T22:07:43.294Z,17.71
2018-05-23T22:10:10.770Z,17.72
2018-05-23T22:12:38.394Z,17.72
2018-05-23T22:15:05.918Z,17.74
2018-05-23T22:17:33.403Z,17.77
2018-05-23T22:20:00.882Z,17.77
2018-05-23T22:22:28.446Z,17.75
2018-05-23T22:24:55.890Z,17.70
2018-05-23T22:27:23.377Z,17.65
2018-05-23T22:29:51.030Z,17.64
2018-05-23T22:32:18.520Z,17.61
2018-05-23T22:34:46.034Z,17.58
2018-05-23T22:37:13.517Z,17.54
2018-05-23T22:39:40.986Z,17.52
2018-05-23T22:42:08.486Z,17.53
2018-05-23T22:44:35.959Z,17.56
2018-05-23T22:47:03.451Z,17.57
2018-05-23T22:49:30.998Z,17.60
2018-05-23T22:51:58.493Z,17.66
2018-05-23T22:54:26.036Z,17.69
2018-05-23T22:56:53.584Z,17.63
2018-05-23T22:59:21.079Z,17.60
2018-05-23T23:01:48.574Z,17.61
2018-05-23T23:04:16.063Z,17.62
2018-05-23T23:06:43.611Z,17.64
2018-05-23T23:09:11.115Z,17.63
2018-05-23T23:11:38.622Z,17.64
2018-05-23T23:14:06.190Z,17.66
2018-05-23T23:16:33.747Z,17.65
2018-05-23T23:19:01.322Z,17.65
2018-05-23T23:21:28.791Z,17.67
2018-05-23T23:23:56.331Z,17.68
2018-05-23T23:26:23.887Z,17.64
2018-05-23T23:28:51.402Z,17.61
2018-05-23T23:31:18.878Z,17.61
2018-05-23T23:33:46.374Z,17.61
2018-05-23T23:36:13.898Z,17.59
2018-05-23T23:38:41.387Z,17.63
2018-05-23T23:41:08.957Z,17.64
2018-05-23T23:43:36.452Z,17.70
2018-05-23T23:46:03.932Z,17.68
2018-05-23T23:48:31.427Z,17.65
2018-05-23T23:50:58.894Z,17.69
2018-05-23T23:53:26.429Z,17.73
2018-05-23T23:55:53.894Z,17.70
2018-05-23T23:58:21.362Z,17.69
